Time;durP1;ratioP1;P1;durP2;ratioP2;P2;SDS_P1;SDS_P2;PMS_P1;PMS_P2;Temp;Humidity;BMP_temperature;BMP_pressure;BME280_temperature;BME280_humidity;BME280_pressure;Samples;Min_cycle;Max_cycle;Signal;HPM_P1;HPM_P2
2023/07/16 00:00:36;;;;;;;8.02;7.22;;;25.80;99.90;;;;;;5123046;27;20024;-75
2023/07/16 00:03:02;;;;;;;9.27;7.03;;;25.80;99.90;;;;;;5119894;27;20081;-75
2023/07/16 00:05:27;;;;;;;12.77;7.47;;;25.80;99.90;;;;;;5122181;27;20131;-75
2023/07/16 00:07:53;;;;;;;12.85;7.10;;;25.80;99.90;;;;;;5123144;27;20038;-75
2023/07/16 00:10:19;;;;;;;9.90;7.22;;;25.80;99.90;;;;;;5121448;27;20020;-75
2023/07/16 00:12:44;;;;;;;9.95;6.95;;;25.80;99.90;;;;;;5123294;27;20043;-76
2023/07/16 00:15:10;;;;;;;14.32;7.43;;;25.80;99.90;;;;;;5120835;27;20020;-75
2023/07/16 00:17:36;;;;;;;11.00;7.28;;;25.80;99.90;;;;;;5124354;27;20054;-75
2023/07/16 00:20:02;;;;;;;13.05;7.38;;;25.80;99.90;;;;;;5120534;27;20490;-76
2023/07/16 00:22:28;;;;;;;8.77;6.55;;;25.80;99.90;;;;;;5122329;27;20115;-76
2023/07/16 00:24:53;;;;;;;9.18;6.72;;;25.80;99.90;;;;;;5118695;27;20491;-75
2023/07/16 00:27:19;;;;;;;12.60;7.50;;;25.80;99.90;;;;;;5120232;27;20039;-75
2023/07/16 00:29:45;;;;;;;7.68;6.85;;;25.80;99.90;;;;;;5122729;27;20098;-75
2023/07/16 00:34:55;;;;;;;13.73;7.15;;;25.80;99.90;;;;;;5120270;27;20039;-75
2023/07/16 00:37:21;;;;;;;11.38;6.85;;;25.80;99.90;;;;;;5123070;27;20023;-75
2023/07/16 00:39:46;;;;;;;8.02;7.15;;;25.80;99.90;;;;;;5120126;27;20031;-75
2023/07/16 00:42:12;;;;;;;11.00;6.88;;;25.80;99.90;;;;;;5122208;27;20019;-75
2023/07/16 00:44:38;;;;;;;11.02;7.05;;;25.80;99.90;;;;;;5122160;28;20024;-75
2023/07/16 00:47:08;;;;;;;10.68;7.05;;;25.80;99.90;;;;;;5120444;28;20037;-76
2023/07/16 01:00:27;;;;;;;12.07;7.22;;;25.70;99.90;;;;;;5047992;28;20324;-82
2023/07/16 01:02:53;;;;;;;14.25;6.68;;;25.70;99.90;;;;;;5030291;28;20559;-81
2023/07/16 01:05:18;;;;;;;14.55;6.68;;;25.70;99.90;;;;;;5030048;28;20064;-80
2023/07/16 01:07:54;;;;;;;9.88;6.35;;;25.70;99.90;;;;;;5029898;28;20044;-81
2023/07/16 01:10:22;;;;;;;9.23;7.05;;;25.70;99.90;;;;;;5028707;28;20451;-80
2023/07/16 01:12:50;;;;;;;12.15;6.85;;;25.70;99.90;;;;;;5010252;28;20018;-81
2023/07/16 01:15:16;;;;;;;11.13;6.88;;;25.70;99.90;;;;;;5010231;28;20076;-81
2023/07/16 01:17:41;;;;;;;7.82;7.03;;;25.60;99.90;;;;;;5014302;28;20014;-81
2023/07/16 01:20:08;;;;;;;7.93;6.53;;;25.60;99.90;;;;;;5029487;28;20465;-81
2023/07/16 01:22:59;;;;;;;11.40;7.32;;;25.60;99.90;;;;;;5029731;28;20037;-80
2023/07/16 01:25:44;;;;;;;7.95;7.25;;;25.60;99.90;;;;;;5029708;28;20109;-81
2023/07/16 01:28:32;;;;;;;10.60;7.03;;;25.60;99.90;;;;;;5020392;28;20552;-81
2023/07/16 01:30:59;;;;;;;8.65;7.20;;;25.50;99.90;;;;;;5009715;28;20049;-81
2023/07/16 01:33:26;;;;;;;7.65;6.93;;;25.50;99.90;;;;;;5022757;28;20058;-81
2023/07/16 01:35:52;;;;;;;7.65;6.57;;;25.50;99.90;;;;;;5010523;28;20068;-81
2023/07/16 01:38:20;;;;;;;9.40;7.13;;;25.50;99.90;;;;;;5019919;28;20033;-81
2023/07/16 01:40:46;;;;;;;8.02;6.75;;;25.40;99.90;;;;;;5029399;28;20071;-80
2023/07/16 01:43:12;;;;;;;7.97;6.70;;;25.40;99.90;;;;;;5017949;28;20101;-80
2023/07/16 01:45:38;;;;;;;11.07;7.07;;;25.40;99.90;;;;;;5009664;28;20121;-80
2023/07/16 01:48:25;;;;;;;10.32;6.80;;;25.40;99.90;;;;;;5017569;28;20427;-81
2023/07/16 01:50:51;;;;;;;16.13;7.20;;;25.40;99.90;;;;;;5027791;28;20628;-81
2023/07/16 01:53:16;;;;;;;9.57;7.65;;;25.40;99.90;;;;;;5029156;28;20020;-81
2023/07/16 01:55:42;;;;;;;11.63;7.38;;;25.40;99.90;;;;;;5029093;28;20397;-81
2023/07/16 01:58:09;;;;;;;13.55;7.40;;;25.40;99.90;;;;;;5027569;28;20030;-80
2023/07/16 02:00:35;;;;;;;10.73;8.35;;;25.40;99.90;;;;;;5010938;28;20034;-81
2023/07/16 02:03:01;;;;;;;11.25;7.45;;;25.40;99.90;;;;;;4996360;28;20041;-80
2023/07/16 02:05:27;;;;;;;12.77;7.03;;;25.40;99.90;;;;;;4996207;28;20030;-81
2023/07/16 02:07:52;;;;;;;10.30;7.00;;;25.40;99.90;;;;;;4996086;28;20038;-81
2023/07/16 02:10:18;;;;;;;13.50;7.25;;;25.40;99.90;;;;;;4994872;28;20019;-80
2023/07/16 02:12:44;;;;;;;9.18;7.07;;;25.40;99.90;;;;;;4994717;28;20022;-81
2023/07/16 02:15:10;;;;;;;10.18;7.30;;;25.30;99.90;;;;;;4995915;28;20019;-81
2023/07/16 02:17:35;;;;;;;14.45;6.95;;;25.30;99.90;;;;;;4996037;28;20026;-81
2023/07/16 02:20:02;;;;;;;9.90;6.82;;;25.30;99.90;;;;;;4995790;28;20482;-81
2023/07/16 02:22:27;;;;;;;11.95;7.22;;;25.20;99.90;;;;;;4995906;28;20493;-81
2023/07/16 02:24:53;;;;;;;10.65;7.00;;;25.20;99.90;;;;;;5004754;28;20057;-81
2023/07/16 02:27:18;;;;;;;13.82;7.13;;;25.20;99.90;;;;;;5015407;28;20036;-81
2023/07/16 02:29:44;;;;;;;10.98;7.63;;;25.10;99.90;;;;;;5014016;28;20033;-81
2023/07/16 02:32:10;;;;;;;10.30;7.93;;;25.20;99.90;;;;;;5015301;28;20026;-80
2023/07/16 02:34:35;;;;;;;13.25;7.78;;;25.10;99.90;;;;;;5015117;28;20018;-81
2023/07/16 02:37:01;;;;;;;13.95;7.70;;;25.10;99.90;;;;;;5013899;28;20037;-80
2023/07/16 02:39:27;;;;;;;12.32;7.85;;;25.00;99.90;;;;;;5013700;28;20030;-81
2023/07/16 02:41:53;;;;;;;12.85;7.93;;;25.10;99.90;;;;;;5015215;28;20493;-80
2023/07/16 02:44:18;;;;;;;12.13;6.80;;;25.00;99.90;;;;;;5015104;28;20396;-81
2023/07/16 02:46:44;;;;;;;8.45;7.68;;;25.00;99.90;;;;;;5015102;28;20106;-81
2023/07/16 02:49:10;;;;;;;10.98;7.75;;;25.00;99.90;;;;;;5005390;28;20054;-81
2023/07/16 02:51:35;;;;;;;8.05;6.88;;;25.00;99.90;;;;;;5014765;28;20481;-81
2023/07/16 02:54:01;;;;;;;15.95;7.47;;;25.00;99.90;;;;;;5013364;28;20022;-81
2023/07/16 02:56:30;;;;;;;10.20;7.30;;;25.00;99.90;;;;;;5014950;28;20010;-81
2023/07/16 02:58:56;;;;;;;8.82;7.28;;;25.00;99.90;;;;;;5014636;28;20050;-81
2023/07/16 03:01:22;;;;;;;11.65;7.35;;;25.00;99.90;;;;;;5014773;28;20029;-81
2023/07/16 03:03:47;;;;;;;8.63;7.90;;;25.00;99.90;;;;;;5014751;28;20157;-81
2023/07/16 03:06:13;;;;;;;8.55;7.75;;;25.00;99.90;;;;;;5010509;28;20032;-81
2023/07/16 03:08:39;;;;;;;10.18;7.97;;;25.00;99.90;;;;;;4998052;28;20029;-81
2023/07/16 03:11:04;;;;;;;11.63;8.25;;;25.00;99.90;;;;;;5013956;28;20512;-81
2023/07/16 03:13:30;;;;;;;17.05;8.00;;;25.00;99.90;;;;;;5012802;28;20477;-80
2023/07/16 03:15:56;;;;;;;8.60;7.45;;;25.00;99.90;;;;;;4998221;28;20445;-81
2023/07/16 03:18:21;;;;;;;10.40;8.30;;;25.00;99.90;;;;;;5009629;28;20018;-81
2023/07/16 03:20:47;;;;;;;10.52;7.45;;;24.90;99.90;;;;;;5008144;28;20044;-81
2023/07/16 03:23:13;;;;;;;9.30;7.25;;;24.90;99.90;;;;;;5010151;28;20033;-81
2023/07/16 03:25:39;;;;;;;10.45;7.95;;;24.90;99.90;;;;;;5011561;28;20053;-81
2023/07/16 03:28:04;;;;;;;9.75;7.43;;;24.80;99.90;;;;;;5004879;28;20065;-81
2023/07/16 03:30:31;;;;;;;10.35;8.32;;;24.80;99.90;;;;;;5001607;28;20033;-81
2023/07/16 03:32:56;;;;;;;9.48;8.18;;;24.80;99.90;;;;;;5008680;28;20018;-81
2023/07/16 03:35:22;;;;;;;9.02;7.93;;;24.80;99.90;;;;;;4998855;28;20079;-81
2023/07/16 03:37:48;;;;;;;9.73;7.90;;;24.80;99.90;;;;;;5008920;28;20513;-81
2023/07/16 03:40:15;;;;;;;8.40;7.60;;;24.80;99.90;;;;;;5006367;28;20029;-81
2023/07/16 03:42:42;;;;;;;9.60;8.32;;;24.80;99.90;;;;;;5014037;28;20501;-81
2023/07/16 03:45:09;;;;;;;9.35;7.93;;;24.80;99.90;;;;;;5012837;28;20053;-81
2023/07/16 03:47:34;;;;;;;10.05;7.38;;;24.80;99.90;;;;;;4999325;28;20029;-81
2023/07/16 03:50:00;;;;;;;9.30;8.32;;;24.70;99.90;;;;;;5004870;28;20033;-81
2023/07/16 03:52:26;;;;;;;10.70;8.15;;;24.70;99.90;;;;;;5013787;28;20021;-81
2023/07/16 03:54:52;;;;;;;11.85;7.85;;;24.70;99.90;;;;;;5013836;28;20076;-81
2023/07/16 03:57:18;;;;;;;13.00;7.90;;;24.70;99.90;;;;;;5013136;28;20116;-81
2023/07/16 03:59:43;;;;;;;10.68;8.95;;;24.70;99.90;;;;;;4993821;28;20590;-81
2023/07/16 04:02:09;;;;;;;10.20;8.10;;;24.70;99.90;;;;;;4994030;28;20053;-81
2023/07/16 04:04:35;;;;;;;14.80;8.57;;;24.80;99.90;;;;;;5009102;28;20042;-81
2023/07/16 04:07:00;;;;;;;14.25;7.75;;;24.70;99.90;;;;;;4993798;28;20057;-81
2023/07/16 04:09:26;;;;;;;12.73;8.40;;;24.70;99.90;;;;;;4993748;28;20497;-81
2023/07/16 04:11:52;;;;;;;10.57;8.15;;;24.80;99.90;;;;;;5004284;28;20033;-81
2023/07/16 04:14:17;;;;;;;10.63;7.47;;;24.80;99.90;;;;;;5001252;28;20478;-81
2023/07/16 04:16:43;;;;;;;11.90;8.45;;;24.70;99.90;;;;;;5012764;28;20029;-81
2023/07/16 04:19:09;;;;;;;11.48;7.55;;;24.70;99.90;;;;;;5013297;28;20032;-80
2023/07/16 04:21:35;;;;;;;8.98;8.07;;;24.70;99.90;;;;;;5013215;28;20482;-81
2023/07/16 04:24:02;;;;;;;9.43;7.70;;;24.70;99.90;;;;;;5013153;28;20111;-81
2023/07/16 04:26:28;;;;;;;10.43;8.38;;;24.70;99.90;;;;;;5012099;28;20500;-81
2023/07/16 04:28:54;;;;;;;11.65;7.53;;;24.80;99.90;;;;;;5013187;28;20034;-81
2023/07/16 04:31:20;;;;;;;15.23;7.93;;;24.80;99.90;;;;;;5013242;28;20027;-81
2023/07/16 04:33:45;;;;;;;12.88;7.88;;;24.80;99.90;;;;;;5013223;28;20392;-81
2023/07/16 04:36:11;;;;;;;9.07;7.70;;;24.80;99.90;;;;;;5008453;28;20022;-81
2023/07/16 04:38:37;;;;;;;14.02;9.23;;;24.80;99.90;;;;;;5008256;28;20104;-81
2023/07/16 04:41:02;;;;;;;12.90;8.52;;;24.80;99.90;;;;;;4994028;28;20026;-81
2023/07/16 04:43:28;;;;;;;15.15;8.45;;;24.80;99.90;;;;;;4993497;28;20034;-81
2023/07/16 04:45:54;;;;;;;11.40;8.20;;;24.80;99.90;;;;;;4992336;28;20030;-81
2023/07/16 04:48:19;;;;;;;15.73;8.40;;;24.80;99.90;;;;;;4998217;28;20025;-81
2023/07/16 04:50:45;;;;;;;12.82;8.38;;;24.80;99.90;;;;;;5012685;28;20148;-80
2023/07/16 04:53:11;;;;;;;14.48;8.02;;;24.90;99.90;;;;;;5012814;28;20080;-81
2023/07/16 04:55:38;;;;;;;11.32;7.60;;;24.90;99.90;;;;;;5008892;28;20026;-81
2023/07/16 04:58:04;;;;;;;13.38;8.00;;;24.90;99.90;;;;;;5012715;28;20546;-81
2023/07/16 05:00:31;;;;;;;11.65;7.75;;;25.00;99.90;;;;;;5012749;28;20083;-81
2023/07/16 05:02:56;;;;;;;11.10;7.43;;;25.00;99.90;;;;;;5007612;28;20033;-81
2023/07/16 05:05:22;;;;;;;11.57;7.72;;;25.00;99.90;;;;;;4997345;28;20034;-80
2023/07/16 05:07:48;;;;;;;18.33;9.02;;;25.00;99.90;;;;;;5004399;28;20022;-81
2023/07/16 05:10:13;;;;;;;15.35;9.30;;;25.00;99.90;;;;;;4999821;28;20029;-81
2023/07/16 05:12:39;;;;;;;15.07;8.25;;;25.10;99.90;;;;;;5000569;28;20018;-81
2023/07/16 05:15:05;;;;;;;9.70;7.40;;;25.20;99.90;;;;;;4999830;28;20027;-81
2023/07/16 05:17:31;;;;;;;13.35;8.07;;;25.20;99.90;;;;;;5005020;28;20047;-81
2023/07/16 05:19:56;;;;;;;13.18;8.48;;;25.30;99.90;;;;;;5005079;28;20026;-81
2023/07/16 05:22:22;;;;;;;11.35;8.20;;;25.30;99.90;;;;;;5003686;28;20105;-81
2023/07/16 05:24:48;;;;;;;15.60;9.13;;;25.40;99.90;;;;;;5004799;28;20458;-81
2023/07/16 05:27:14;;;;;;;15.80;8.13;;;25.30;99.90;;;;;;5001894;28;20034;-80
2023/07/16 05:29:39;;;;;;;12.23;8.77;;;25.40;99.90;;;;;;4992732;28;20069;-80
2023/07/16 05:32:05;;;;;;;11.23;7.68;;;25.50;99.90;;;;;;4993078;28;20084;-81
2023/07/16 05:34:31;;;;;;;14.40;8.75;;;25.50;99.90;;;;;;4993135;28;20022;-81
2023/07/16 05:36:57;;;;;;;12.98;7.88;;;25.60;99.90;;;;;;4997245;28;20022;-81
2023/07/16 05:39:22;;;;;;;15.18;7.95;;;25.60;99.90;;;;;;5015046;28;20034;-81
2023/07/16 05:41:48;;;;;;;10.10;7.88;;;25.70;99.90;;;;;;5016253;28;20026;-81
2023/07/16 05:44:14;;;;;;;11.68;7.72;;;25.70;99.90;;;;;;5016152;28;20038;-81
2023/07/16 05:46:39;;;;;;;9.30;7.55;;;25.70;99.90;;;;;;5016092;28;20096;-81
2023/07/16 05:49:05;;;;;;;11.45;8.15;;;25.80;99.90;;;;;;5015865;28;20034;-81
2023/07/16 05:51:31;;;;;;;14.82;7.93;;;25.80;99.90;;;;;;5016018;28;20018;-81
2023/07/16 05:53:57;;;;;;;15.48;8.90;;;25.80;99.90;;;;;;5012001;28;20022;-81
2023/07/16 05:56:23;;;;;;;14.07;8.45;;;25.80;99.90;;;;;;5015967;28;20389;-81
2023/07/16 05:58:48;;;;;;;15.02;8.23;;;25.90;99.90;;;;;;5015850;28;20054;-81
2023/07/16 06:01:14;;;;;;;14.48;7.85;;;26.00;99.90;;;;;;5015785;28;20393;-81
2023/07/16 06:03:40;;;;;;;14.73;7.63;;;26.00;99.90;;;;;;5014409;28;20032;-81
2023/07/16 06:06:08;;;;;;;9.32;8.27;;;26.10;99.90;;;;;;5006815;28;20018;-80
2023/07/16 06:08:33;;;;;;;13.27;8.32;;;26.10;99.90;;;;;;4994894;28;20397;-80
2023/07/16 06:10:59;;;;;;;12.25;8.57;;;26.20;99.90;;;;;;5000875;28;20025;-80
2023/07/16 06:13:25;;;;;;;10.95;8.00;;;26.20;99.90;;;;;;5015659;28;20079;-81
2023/07/16 06:15:50;;;;;;;15.30;8.45;;;26.20;99.90;;;;;;5015672;28;20563;-80
2023/07/16 06:18:16;;;;;;;11.88;8.18;;;26.30;99.90;;;;;;5015636;28;20073;-80
2023/07/16 06:20:45;;;;;;;10.18;8.50;;;26.40;99.90;;;;;;5014106;28;20026;-80
2023/07/16 06:23:12;;;;;;;10.98;8.40;;;26.40;99.90;;;;;;4995900;28;20398;-80
2023/07/16 06:25:40;;;;;;;13.63;8.68;;;26.50;99.90;;;;;;5000850;28;20026;-80
2023/07/16 06:28:06;;;;;;;19.80;8.48;;;26.50;99.90;;;;;;5012347;28;20053;-80
2023/07/16 06:30:32;;;;;;;14.25;8.55;;;26.60;99.90;;;;;;5015155;28;20014;-81
2023/07/16 06:32:59;;;;;;;15.35;8.90;;;26.60;99.90;;;;;;5000811;28;20725;-80
2023/07/16 06:35:25;;;;;;;12.57;9.13;;;26.60;99.90;;;;;;5001150;28;20389;-80
2023/07/16 06:37:50;;;;;;;12.15;8.82;;;26.70;99.90;;;;;;5006790;28;20019;-80
2023/07/16 06:40:19;;;;;;;10.73;9.13;;;26.70;99.90;;;;;;4995481;28;20057;-81
2023/07/16 06:42:44;;;;;;;14.73;8.98;;;26.80;99.90;;;;;;4995526;28;20022;-80
2023/07/16 06:45:10;;;;;;;13.07;9.13;;;26.80;99.90;;;;;;4994201;28;20102;-80
2023/07/16 06:47:36;;;;;;;12.20;9.23;;;26.80;99.90;;;;;;5010747;28;20018;-80
2023/07/16 06:50:02;;;;;;;12.90;9.82;;;26.80;99.90;;;;;;5014788;28;20034;-81
2023/07/16 06:52:28;;;;;;;15.95;9.95;;;26.90;99.90;;;;;;5012693;28;20018;-81
2023/07/16 06:54:55;;;;;;;15.88;9.93;;;26.90;99.90;;;;;;5006869;28;20081;-81
2023/07/16 06:57:21;;;;;;;13.80;10.50;;;26.90;99.90;;;;;;4995347;28;20494;-81
2023/07/16 06:59:46;;;;;;;12.43;9.65;;;26.90;99.90;;;;;;4994947;28;20054;-81
2023/07/16 07:02:12;;;;;;;13.52;9.80;;;26.90;99.90;;;;;;4995134;28;20038;-80
2023/07/16 07:04:38;;;;;;;15.48;9.93;;;27.00;99.90;;;;;;4995119;28;20497;-81
2023/07/16 07:07:04;;;;;;;9.02;8.13;;;27.00;99.90;;;;;;4994946;28;20022;-81
2023/07/16 07:09:30;;;;;;;15.20;8.38;;;27.10;99.90;;;;;;4994933;28;20030;-81
2023/07/16 07:11:56;;;;;;;16.40;8.35;;;27.00;99.90;;;;;;5000419;28;20075;-81
2023/07/16 07:14:22;;;;;;;13.93;8.50;;;27.10;99.90;;;;;;5012451;28;20021;-81
2023/07/16 07:16:47;;;;;;;15.20;9.15;;;27.10;99.90;;;;;;4993704;28;20041;-81
2023/07/16 07:19:13;;;;;;;13.82;9.27;;;27.20;99.90;;;;;;4997357;28;20038;-81
2023/07/16 07:21:39;;;;;;;11.55;8.68;;;27.30;99.90;;;;;;5014408;28;20029;-81
2023/07/16 07:24:05;;;;;;;13.63;8.40;;;27.30;99.90;;;;;;5011042;28;20026;-81
2023/07/16 07:26:30;;;;;;;19.63;8.18;;;27.30;99.90;;;;;;4998489;28;20021;-81
2023/07/16 07:28:56;;;;;;;16.95;9.05;;;27.40;99.90;;;;;;5012837;28;20030;-81
2023/07/16 07:31:22;;;;;;;14.35;8.32;;;27.40;99.90;;;;;;5014322;28;20105;-81
2023/07/16 07:33:48;;;;;;;11.07;8.40;;;27.40;99.90;;;;;;5014245;28;20026;-81
2023/07/16 07:36:13;;;;;;;12.25;8.00;;;27.40;99.90;;;;;;5013932;28;20064;-81
2023/07/16 07:38:39;;;;;;;16.13;8.73;;;27.40;99.90;;;;;;5014164;28;20022;-81
2023/07/16 07:41:06;;;;;;;13.40;8.23;;;27.40;99.90;;;;;;5012751;28;20061;-80
2023/07/16 07:43:31;;;;;;;11.13;7.85;;;27.40;99.90;;;;;;4995925;28;20508;-81
2023/07/16 07:45:57;;;;;;;12.43;7.90;;;27.40;99.90;;;;;;5011595;28;20033;-81
2023/07/16 07:48:23;;;;;;;11.82;7.60;;;27.50;99.90;;;;;;5005404;28;20393;-81
2023/07/16 07:50:49;;;;;;;11.27;8.38;;;27.50;99.90;;;;;;4996245;28;20118;-81
2023/07/16 07:53:17;;;;;;;11.75;7.95;;;27.60;99.90;;;;;;4992765;28;20477;-81
2023/07/16 07:55:43;;;;;;;9.07;7.63;;;27.60;99.90;;;;;;5005173;28;20029;-81
2023/07/16 07:58:09;;;;;;;11.50;7.78;;;27.60;99.90;;;;;;5011567;28;20018;-81
2023/07/16 08:00:35;;;;;;;16.67;8.02;;;27.60;99.90;;;;;;5011960;28;20065;-81
2023/07/16 08:03:01;;;;;;;9.55;8.45;;;27.60;99.90;;;;;;5001334;28;20485;-81
2023/07/16 08:05:27;;;;;;;15.93;8.20;;;27.70;99.90;;;;;;5012194;28;20527;-81
2023/07/16 08:07:53;;;;;;;12.50;7.82;;;27.80;99.90;;;;;;5008232;28;20018;-81
2023/07/16 08:10:19;;;;;;;16.83;9.20;;;27.90;99.90;;;;;;5005691;28;20030;-80
2023/07/16 08:12:45;;;;;;;11.25;8.40;;;28.00;99.90;;;;;;5000654;28;20028;-80
2023/07/16 08:15:14;;;;;;;15.73;8.85;;;27.90;99.90;;;;;;4999035;28;20029;-80
2023/07/16 08:17:44;;;;;;;10.65;8.73;;;27.80;99.90;;;;;;5012209;28;20380;-81
2023/07/16 08:20:11;;;;;;;12.88;8.15;;;27.90;99.90;;;;;;5013278;28;20088;-80
2023/07/16 08:22:38;;;;;;;14.93;8.70;;;28.00;99.90;;;;;;5013468;28;20037;-81
2023/07/16 08:25:04;;;;;;;13.07;9.32;;;28.00;99.90;;;;;;5013390;28;20025;-81
2023/07/16 08:27:30;;;;;;;13.95;9.05;;;27.90;99.90;;;;;;5005478;28;20080;-81
2023/07/16 08:29:56;;;;;;;14.18;9.10;;;28.00;99.90;;;;;;5001251;28;20032;-80
2023/07/16 08:32:22;;;;;;;9.60;8.60;;;28.10;99.90;;;;;;4993676;28;20429;-81
2023/07/16 08:34:48;;;;;;;13.77;8.40;;;28.10;99.90;;;;;;5002950;28;20041;-81
2023/07/16 08:37:14;;;;;;;15.27;9.88;;;28.10;99.90;;;;;;5001928;28;20486;-81
2023/07/16 08:39:40;;;;;;;12.27;9.40;;;28.10;99.90;;;;;;5008171;28;20505;-80
2023/07/16 08:42:08;;;;;;;11.73;9.68;;;28.20;99.90;;;;;;5004819;28;20030;-81
2023/07/16 08:44:35;;;;;;;9.30;8.40;;;28.20;99.90;;;;;;4994438;28;20026;-81
2023/07/16 08:47:00;;;;;;;10.85;8.45;;;28.30;99.90;;;;;;4992865;28;20031;-81
2023/07/16 08:49:30;;;;;;;12.63;8.65;;;28.40;99.90;;;;;;4995841;28;20076;-81
2023/07/16 08:51:56;;;;;;;9.18;8.05;;;28.30;99.90;;;;;;5000884;28;20040;-75
2023/07/16 08:54:24;;;;;;;10.30;8.10;;;28.40;99.90;;;;;;4999186;28;20490;-75
2023/07/16 08:56:51;;;;;;;14.55;9.23;;;28.40;99.90;;;;;;5001934;28;20026;-75
2023/07/16 08:59:17;;;;;;;20.90;9.20;;;28.40;99.90;;;;;;5001894;28;20108;-75
2023/07/16 09:01:44;;;;;;;12.23;9.38;;;28.40;99.90;;;;;;5002141;28;20033;-75
2023/07/16 09:04:10;;;;;;;14.60;9.18;;;28.40;99.90;;;;;;5000607;28;20401;-75
2023/07/16 09:06:35;;;;;;;10.85;9.75;;;28.40;99.90;;;;;;5008565;28;20032;-75
2023/07/16 09:09:01;;;;;;;11.68;9.13;;;28.50;99.90;;;;;;5008318;28;20512;-75
2023/07/16 09:11:27;;;;;;;14.52;9.52;;;28.50;99.90;;;;;;5007064;28;20026;-75
2023/07/16 09:13:52;;;;;;;10.10;9.05;;;28.60;99.90;;;;;;5002281;28;20445;-75
2023/07/16 09:16:21;;;;;;;14.57;9.18;;;28.60;99.90;;;;;;5004502;28;20105;-75
2023/07/16 09:18:47;;;;;;;9.70;8.80;;;28.70;99.90;;;;;;5003952;28;20040;-75
2023/07/16 09:21:13;;;;;;;10.00;8.95;;;28.70;99.90;;;;;;5006171;28;20385;-75
2023/07/16 09:23:41;;;;;;;12.65;9.35;;;28.80;99.90;;;;;;5008850;28;20037;-75
2023/07/16 09:26:07;;;;;;;21.92;9.95;;;28.80;99.90;;;;;;5014483;28;20425;-75
2023/07/16 09:28:33;;;;;;;10.73;9.02;;;28.90;99.90;;;;;;5012610;28;20030;-75
2023/07/16 09:31:07;;;;;;;14.93;10.05;;;28.90;99.90;;;;;;5014270;28;20504;-75
2023/07/16 09:33:33;;;;;;;12.55;8.23;;;28.90;99.90;;;;;;5006481;28;20112;-75
2023/07/16 09:35:59;;;;;;;14.57;8.35;;;28.90;99.90;;;;;;5003707;28;20046;-75
2023/07/16 09:38:27;;;;;;;10.57;8.52;;;29.00;99.90;;;;;;5002704;28;20026;-75
2023/07/16 09:40:55;;;;;;;17.17;9.75;;;29.00;99.90;;;;;;5006736;28;20378;-75
2023/07/16 09:43:21;;;;;;;17.58;8.25;;;29.00;99.90;;;;;;5007378;28;20030;-75
2023/07/16 09:45:50;;;;;;;12.80;9.43;;;29.10;99.90;;;;;;5006772;28;20018;-75
2023/07/16 09:48:16;;;;;;;14.27;8.73;;;29.10;99.90;;;;;;5003859;28;20029;-75
2023/07/16 09:50:50;;;;;;;17.02;8.57;;;29.40;99.90;;;;;;5006516;28;20022;-75
2023/07/16 09:53:23;;;;;;;11.63;8.40;;;29.50;99.90;;;;;;5010095;28;20483;-75
2023/07/16 09:55:49;;;;;;;11.65;7.75;;;29.50;99.90;;;;;;5001439;28;20033;-75
2023/07/16 09:58:19;;;;;;;10.77;7.25;;;29.40;99.90;;;;;;5003896;28;20496;-74
2023/07/16 10:00:47;;;;;;;9.57;7.03;;;29.50;99.90;;;;;;5002283;28;20070;-74
2023/07/16 10:03:15;;;;;;;9.75;7.50;;;29.50;99.90;;;;;;5002209;28;20037;-75
2023/07/16 10:05:41;;;;;;;10.07;7.35;;;29.60;99.90;;;;;;5003751;28;20034;-75
2023/07/16 10:08:16;;;;;;;8.32;7.05;;;29.60;99.90;;;;;;4999552;28;20450;-75
2023/07/16 10:10:44;;;;;;;13.30;7.57;;;29.60;99.90;;;;;;5001886;28;20089;-75
2023/07/16 10:13:13;;;;;;;10.30;8.10;;;29.70;99.90;;;;;;5002386;28;20402;-75
2023/07/16 10:15:50;;;;;;;12.32;7.72;;;29.70;99.90;;;;;;5002414;28;20018;-75
2023/07/16 10:18:30;;;;;;;10.32;7.20;;;29.90;99.90;;;;;;5001196;28;20398;-75
2023/07/16 10:21:08;;;;;;;13.77;7.45;;;30.10;99.90;;;;;;5003716;28;20032;-75
2023/07/16 10:23:42;;;;;;;11.88;6.68;;;30.20;99.90;;;;;;5002624;28;20022;-75
2023/07/16 10:26:10;;;;;;;10.00;7.25;;;30.10;99.90;;;;;;5002623;28;20536;-75
2023/07/16 10:28:37;;;;;;;13.45;7.32;;;30.10;99.90;;;;;;5004629;28;20029;-75
2023/07/16 10:31:03;;;;;;;7.90;7.15;;;30.10;99.90;;;;;;5001998;28;20024;-75
2023/07/16 10:33:29;;;;;;;10.75;7.60;;;30.10;99.90;;;;;;5005683;28;20097;-75
2023/07/16 10:35:58;;;;;;;8.38;6.70;;;30.20;99.90;;;;;;5001332;28;20034;-75
2023/07/16 10:38:24;;;;;;;11.27;6.95;;;30.30;99.90;;;;;;5003396;28;20026;-75
2023/07/16 10:40:50;;;;;;;14.40;6.72;;;30.40;99.90;;;;;;5003743;28;20050;-75
2023/07/16 10:43:16;;;;;;;13.00;6.50;;;30.60;99.90;;;;;;5002228;28;20072;-75
2023/07/16 10:45:41;;;;;;;12.50;7.03;;;30.70;99.90;;;;;;5002911;28;20026;-75
2023/07/16 10:48:07;;;;;;;8.15;6.20;;;30.70;99.90;;;;;;5003749;28;20026;-75
2023/07/16 10:50:34;;;;;;;16.17;6.45;;;30.80;99.90;;;;;;5005567;28;20026;-75
2023/07/16 10:53:01;;;;;;;10.38;5.78;;;30.80;99.90;;;;;;5001781;28;20061;-75
2023/07/16 10:55:28;;;;;;;12.90;6.53;;;30.90;99.90;;;;;;5005784;28;20022;-75
2023/07/16 10:57:56;;;;;;;7.05;5.55;;;30.90;99.90;;;;;;5002930;28;20030;-75
2023/07/16 11:00:22;;;;;;;10.18;5.97;;;31.00;99.90;;;;;;5003226;28;20561;-75
2023/07/16 11:02:50;;;;;;;7.43;5.78;;;31.20;99.90;;;;;;5003230;28;20547;-75
2023/07/16 11:05:18;;;;;;;7.78;5.38;;;31.40;99.90;;;;;;5004556;28;20018;-75
2023/07/16 11:07:48;;;;;;;8.25;5.13;;;31.50;99.90;;;;;;5001412;28;20078;-75
2023/07/16 11:10:16;;;;;;;8.25;5.00;;;31.50;99.90;;;;;;5001917;28;20088;-75
2023/07/16 11:12:42;;;;;;;10.35;4.70;;;31.50;99.90;;;;;;5003858;28;20061;-75
2023/07/16 11:15:09;;;;;;;10.95;5.45;;;31.50;99.90;;;;;;5003082;28;20459;-75
2023/07/16 11:17:38;;;;;;;7.22;5.45;;;31.60;99.70;;;;;;5002972;28;20033;-75
2023/07/16 11:20:12;;;;;;;5.00;4.43;;;31.60;99.90;;;;;;5004698;28;20023;-74
2023/07/16 11:22:38;;;;;;;5.97;5.22;;;31.70;99.30;;;;;;5000968;28;20029;-75
2023/07/16 11:25:11;;;;;;;8.25;5.15;;;31.70;99.40;;;;;;5001106;28;20034;-75
2023/07/16 11:27:40;;;;;;;10.85;6.60;;;31.70;99.90;;;;;;5003676;28;20030;-75
2023/07/16 11:30:06;;;;;;;10.00;6.75;;;31.70;99.90;;;;;;5004732;28;20061;-75
2023/07/16 11:32:46;;;;;;;13.38;6.88;;;31.70;99.90;;;;;;4999057;28;20026;-75
2023/07/16 11:35:17;;;;;;;7.82;6.20;;;31.80;99.90;;;;;;5004565;28;20113;-75
2023/07/16 11:37:43;;;;;;;11.70;6.20;;;31.90;99.90;;;;;;5003996;28;20029;-75
2023/07/16 11:40:10;;;;;;;9.18;6.18;;;32.00;99.90;;;;;;5000908;28;20494;-74
2023/07/16 11:42:40;;;;;;;11.70;6.15;;;32.20;99.90;;;;;;5001299;28;20037;-74
2023/07/16 11:45:18;;;;;;;12.68;6.85;;;32.30;99.90;;;;;;5009785;28;20401;-75
2023/07/16 11:47:45;;;;;;;7.28;5.82;;;32.40;99.90;;;;;;5004078;28;20069;-75
2023/07/16 11:50:11;;;;;;;10.57;6.50;;;32.50;99.90;;;;;;5001186;28;20405;-75
2023/07/16 11:52:38;;;;;;;11.73;6.15;;;32.70;99.90;;;;;;5004115;28;20022;-74
2023/07/16 11:55:05;;;;;;;7.65;4.93;;;32.70;99.90;;;;;;5001463;28;20034;-75
2023/07/16 11:57:31;;;;;;;9.40;5.93;;;32.80;99.90;;;;;;5009595;28;20026;-75
2023/07/16 11:59:57;;;;;;;6.68;5.32;;;32.90;99.90;;;;;;5000663;28;20074;-75
2023/07/16 12:02:25;;;;;;;6.80;5.53;;;32.90;99.90;;;;;;5002385;28;20053;-74
2023/07/16 12:04:50;;;;;;;8.10;6.13;;;33.00;99.90;;;;;;5003313;28;20109;-75
2023/07/16 12:07:34;;;;;;;5.90;5.07;;;33.10;99.60;;;;;;5000909;28;20112;-75
2023/07/16 12:10:00;;;;;;;6.63;5.20;;;33.20;96.40;;;;;;5002171;28;20030;-75
2023/07/16 12:12:26;;;;;;;10.82;5.43;;;33.10;96.30;;;;;;5001638;28;20425;-75
2023/07/16 12:14:52;;;;;;;10.38;5.55;;;33.20;95.90;;;;;;5003312;28;20026;-75
2023/07/16 12:17:17;;;;;;;8.77;5.72;;;33.20;96.10;;;;;;5000738;28;20085;-74
2023/07/16 12:19:43;;;;;;;6.25;4.82;;;33.30;96.90;;;;;;5010580;28;20036;-75
2023/07/16 12:22:09;;;;;;;7.82;6.22;;;33.40;96.90;;;;;;4998738;28;20044;-75
2023/07/16 12:24:35;;;;;;;9.10;5.75;;;33.60;98.50;;;;;;5003612;28;20029;-75
2023/07/16 12:27:01;;;;;;;6.65;5.28;;;33.80;99.10;;;;;;5001024;28;20027;-75
2023/07/16 12:29:27;;;;;;;7.55;5.55;;;34.00;98.50;;;;;;5002560;28;20553;-74
2023/07/16 12:31:53;;;;;;;10.13;5.35;;;34.00;95.90;;;;;;5001821;28;20023;-75
2023/07/16 12:34:19;;;;;;;7.20;4.97;;;34.00;94.50;;;;;;5000106;28;20178;-75
2023/07/16 12:36:44;;;;;;;7.75;4.82;;;34.00;94.30;;;;;;5003462;28;20179;-75
2023/07/16 12:39:10;;;;;;;6.10;5.50;;;34.00;94.00;;;;;;4999506;28;20046;-74
2023/07/16 12:41:36;;;;;;;5.93;5.05;;;34.10;94.90;;;;;;5003078;28;20026;-75
2023/07/16 12:44:02;;;;;;;6.10;5.32;;;34.20;93.40;;;;;;5003536;28;20053;-75
2023/07/16 12:46:27;;;;;;;10.55;6.25;;;34.20;93.70;;;;;;4999975;28;20037;-72
2023/07/16 12:48:53;;;;;;;7.93;5.90;;;34.20;93.80;;;;;;5001831;28;20037;-72
2023/07/16 12:51:19;;;;;;;5.80;5.30;;;34.20;93.40;;;;;;5007677;28;20023;-72